Time;durP1;ratioP1;P1;durP2;ratioP2;P2;SDS_P1;SDS_P2;PMS_P1;PMS_P2;Temp;Humidity;BMP_temperature;BMP_pressure;BME280_temperature;BME280_humidity;BME280_pressure;Samples;Min_cycle;Max_cycle;Signal;HPM_P1;HPM_P2
2023/08/22 00:01:42;;;;;;;10.30;4.32;;;;;;;18.09;95.45;102190.56;6085836;19;20380;-72
2023/08/22 00:03:47;;;;;;;10.50;4.90;;;;;;;18.02;96.71;102198.00;6079286;19;20524;-71
2023/08/22 00:05:52;;;;;;;8.25;4.60;;;;;;;17.99;96.37;102193.72;6068285;19;20431;-71
2023/08/22 00:07:58;;;;;;;10.75;4.60;;;;;;;17.99;96.87;102191.03;6094159;19;20007;-71
2023/08/22 00:10:03;;;;;;;9.95;4.60;;;;;;;17.98;96.35;102191.09;6087273;19;20467;-71
2023/08/22 00:12:11;;;;;;;10.70;4.75;;;;;;;18.01;97.60;102179.44;6069240;19;20042;-72
2023/08/22 00:14:16;;;;;;;8.57;4.30;;;;;;;17.98;95.59;102181.34;6088464;19;22252;-72
2023/08/22 00:16:23;;;;;;;10.10;4.50;;;;;;;17.99;95.66;102176.88;6079533;19;20011;-73
2023/08/22 00:18:31;;;;;;;11.32;4.63;;;;;;;17.98;96.41;102170.72;6082485;19;20010;-72
2023/08/22 00:20:38;;;;;;;10.98;4.75;;;;;;;17.99;96.08;102175.09;6071840;19;20002;-73
2023/08/22 00:22:41;;;;;;;7.20;3.80;;;;;;;17.99;97.05;102175.09;6080083;19;20012;-73
2023/08/22 00:24:46;;;;;;;10.80;4.63;;;;;;;17.97;96.86;102163.66;6094667;19;20503;-73
2023/08/22 00:26:51;;;;;;;7.50;4.13;;;;;;;17.96;96.08;102167.25;6080226;19;20617;-73
2023/08/22 00:28:59;;;;;;;8.02;4.25;;;;;;;17.90;96.51;102164.91;6076099;19;20042;-72
2023/08/22 00:31:04;;;;;;;9.45;4.32;;;;;;;17.87;96.50;102159.75;6088964;19;20380;-73
2023/08/22 00:33:09;;;;;;;8.77;4.13;;;;;;;17.88;96.71;102150.84;6077599;19;20302;-74
2023/08/22 00:35:11;;;;;;;9.75;4.07;;;;;;;17.90;95.80;102151.59;6077541;19;20014;-74
2023/08/22 00:37:16;;;;;;;9.90;5.13;;;;;;;17.87;96.49;102149.09;6093944;19;20007;-75
2023/08/22 00:39:24;;;;;;;9.27;3.95;;;;;;;17.90;96.37;102164.03;6098238;19;20006;-75
2023/08/22 00:41:32;;;;;;;8.23;4.18;;;;;;;17.81;95.44;102146.75;6096478;19;20014;-73
2023/08/22 00:43:37;;;;;;;10.23;4.20;;;;;;;17.80;95.86;102144.16;6077262;19;20377;-73
2023/08/22 00:45:46;;;;;;;10.82;4.53;;;;;;;17.74;97.04;102145.31;6095906;19;20527;-73
2023/08/22 00:47:51;;;;;;;8.20;4.45;;;;;;;17.72;96.71;102145.41;6096460;19;20010;-73
2023/08/22 00:49:59;;;;;;;8.95;4.75;;;;;;;17.69;96.50;102144.66;6075428;19;20535;-72
2023/08/22 00:52:07;;;;;;;11.20;5.43;;;;;;;17.66;96.83;102144.81;6094026;19;20566;-72
2023/08/22 00:54:13;;;;;;;8.85;4.30;;;;;;;17.62;96.71;102136.16;6093212;19;20539;-72
2023/08/22 00:56:18;;;;;;;7.10;3.90;;;;;;;17.65;96.44;102145.78;6076636;19;20578;-73
2023/08/22 00:58:25;;;;;;;8.30;4.30;;;;;;;17.65;97.45;102138.66;6075262;19;20035;-72
2023/08/22 01:00:30;;;;;;;8.48;3.85;;;;;;;17.67;97.38;102130.63;6074796;19;20009;-73
2023/08/22 01:02:38;;;;;;;8.55;4.07;;;;;;;17.65;98.05;102129.81;6097623;19;20897;-73
2023/08/22 01:04:43;;;;;;;9.10;3.72;;;;;;;17.60;98.11;102124.72;6094808;19;20460;-74
2023/08/22 01:06:50;;;;;;;6.95;3.50;;;;;;;17.57;98.15;102137.31;6073996;19;20007;-72
2023/08/22 01:09:05;;;;;;;7.75;3.67;;;;;;;17.51;96.82;102136.69;6096256;19;20006;-74
2023/08/22 01:11:19;;;;;;;7.47;3.85;;;;;;;17.45;97.49;102142.28;6092684;19;19999;-74
2023/08/22 01:13:30;;;;;;;7.32;3.55;;;;;;;17.42;97.33;102139.78;6074200;19;19998;-73
2023/08/22 01:15:38;;;;;;;10.25;4.32;;;;;;;17.33;98.98;102132.25;6076128;19;20014;-73
2023/08/22 01:17:46;;;;;;;7.22;3.70;;;;;;;17.29;97.88;102136.00;6095529;19;20010;-73
2023/08/22 01:19:52;;;;;;;8.95;4.30;;;;;;;17.27;97.54;102125.44;6096034;19;20081;-72
2023/08/22 01:22:01;;;;;;;7.82;4.18;;;;;;;17.24;97.94;102135.34;6075867;19;20050;-71
2023/08/22 01:24:07;;;;;;;6.82;4.20;;;;;;;17.20;98.30;102145.25;6094671;19;20114;-72
2023/08/22 01:26:12;;;;;;;8.52;3.83;;;;;;;17.18;98.27;102143.63;6084454;19;20542;-71
2023/08/22 01:28:23;;;;;;;7.43;3.45;;;;;;;17.11;98.46;102141.25;6075566;19;20929;-72
2023/08/22 01:30:35;;;;;;;10.13;4.30;;;;;;;17.09;99.46;102139.59;6096350;19;20108;-71
2023/08/22 01:32:43;;;;;;;8.35;3.60;;;;;;;17.07;99.80;102141.47;6072236;19;20010;-71
2023/08/22 01:34:50;;;;;;;6.50;3.70;;;;;;;17.06;98.96;102147.69;6096877;19;20017;-71
2023/08/22 01:36:57;;;;;;;9.65;4.03;;;;;;;17.04;100.00;102147.78;6075923;19;20043;-71
2023/08/22 01:39:07;;;;;;;6.95;3.83;;;;;;;17.02;100.00;102144.34;6072524;19;20010;-72
2023/08/22 01:41:13;;;;;;;6.00;3.10;;;;;;;17.03;99.65;102139.88;6074643;19;20002;-73
2023/08/22 01:43:19;;;;;;;7.57;3.85;;;;;;;16.98;100.00;102147.19;6091908;19;20558;-73
2023/08/22 01:45:26;;;;;;;6.65;3.33;;;;;;;16.97;99.27;102143.69;6087924;19;20011;-74
2023/08/22 01:47:35;;;;;;;8.27;3.92;;;;;;;16.97;99.86;102146.34;6090065;19;20011;-74
2023/08/22 01:49:40;;;;;;;6.95;3.50;;;;;;;16.97;99.52;102141.03;6093113;19;19998;-75
2023/08/22 01:51:45;;;;;;;7.25;3.50;;;;;;;16.95;99.62;102132.25;6089066;19;20468;-72
2023/08/22 01:53:50;;;;;;;6.72;3.28;;;;;;;16.97;99.30;102141.03;6086349;19;20523;-72
2023/08/22 01:56:01;;;;;;;8.68;3.72;;;;;;;16.93;99.67;102144.78;6093233;19;20600;-72
2023/08/22 01:58:10;;;;;;;6.80;3.60;;;;;;;16.92;100.00;102136.88;6071070;19;20013;-72
2023/08/22 02:00:14;;;;;;;6.45;3.42;;;;;;;16.89;100.00;102132.56;6093977;19;20013;-72
2023/08/22 02:02:19;;;;;;;6.65;3.85;;;;;;;16.88;100.00;102130.84;6093105;19;20546;-73
2023/08/22 02:04:24;;;;;;;8.18;3.72;;;;;;;16.87;100.00;102134.41;6074850;19;20016;-72
2023/08/22 02:06:32;;;;;;;8.77;3.17;;;;;;;16.85;99.66;102129.19;6092696;19;20559;-72
2023/08/22 02:08:39;;;;;;;7.68;3.83;;;;;;;16.87;100.00;102124.66;6093122;19;20479;-72
2023/08/22 02:10:44;;;;;;;6.78;3.60;;;;;;;16.88;100.00;102120.22;6072475;19;20038;-72
2023/08/22 02:12:52;;;;;;;8.27;3.63;;;;;;;16.87;100.00;102127.31;6091985;19;20109;-73
2023/08/22 02:15:02;;;;;;;5.35;3.70;;;;;;;16.86;100.00;102130.91;6092347;19;20006;-73
2023/08/22 02:17:07;;;;;;;7.78;3.63;;;;;;;16.77;100.00;102125.13;6090058;19;20511;-73
2023/08/22 02:19:12;;;;;;;5.78;3.70;;;;;;;16.77;100.00;102127.78;6091341;19;20010;-73
2023/08/22 02:21:19;;;;;;;6.43;3.47;;;;;;;16.74;100.00;102114.66;6090886;19;20007;-72
2023/08/22 02:23:26;;;;;;;10.60;3.85;;;;;;;16.73;100.00;102118.25;6085415;19;20529;-73
2023/08/22 02:25:32;;;;;;;8.60;3.97;;;;;;;16.68;100.00;102121.09;6081058;19;20395;-72
2023/08/22 02:27:37;;;;;;;7.72;3.30;;;;;;;16.65;100.00;102118.59;6077639;19;20010;-73
2023/08/22 02:29:46;;;;;;;7.43;3.47;;;;;;;16.61;100.00;102112.59;6078993;19;20015;-72
2023/08/22 02:31:51;;;;;;;7.07;3.35;;;;;;;16.60;100.00;102121.44;6082627;19;20151;-72
2023/08/22 02:33:58;;;;;;;6.22;3.17;;;;;;;16.57;100.00;102115.44;6094463;19;20003;-72
2023/08/22 02:36:03;;;;;;;9.32;3.80;;;;;;;16.55;100.00;102111.97;6065716;19;20006;-72
2023/08/22 02:38:05;;;;;;;5.70;2.90;;;;;;;16.53;100.00;102114.69;6090065;19;20364;-72
2023/08/22 02:40:11;;;;;;;7.03;3.10;;;;;;;16.51;100.00;102105.97;6087620;19;20010;-72
2023/08/22 02:42:14;;;;;;;8.82;3.63;;;;;;;16.50;100.00;102106.00;6093664;19;20031;-72
2023/08/22 02:44:19;;;;;;;9.20;3.80;;;;;;;16.49;100.00;102101.66;6089105;19;20065;-73
2023/08/22 02:46:29;;;;;;;8.23;3.67;;;;;;;16.49;100.00;102106.97;6094140;19;20014;-73
2023/08/22 02:48:34;;;;;;;7.53;3.72;;;;;;;16.48;100.00;102094.59;6093717;19;20391;-72
2023/08/22 02:50:39;;;;;;;6.88;3.47;;;;;;;16.49;100.00;102099.84;6073634;19;20047;-75
2023/08/22 02:52:44;;;;;;;6.95;3.45;;;;;;;16.50;100.00;102106.00;6089866;19;20609;-70
2023/08/22 02:54:50;;;;;;;8.02;3.85;;;;;;;16.53;100.00;102104.06;6096483;19;20050;-72
2023/08/22 02:56:55;;;;;;;10.02;3.92;;;;;;;16.53;100.00;102100.56;6094661;19;20010;-72
2023/08/22 02:59:04;;;;;;;7.18;3.63;;;;;;;16.56;100.00;102109.28;6084214;19;20260;-72
2023/08/22 03:01:09;;;;;;;12.18;3.88;;;;;;;16.50;100.00;102108.66;6074597;19;20402;-74
2023/08/22 03:03:18;;;;;;;8.73;3.85;;;;;;;16.48;100.00;102106.06;6085002;19;20014;-74
2023/08/22 03:05:25;;;;;;;8.77;3.83;;;;;;;16.46;100.00;102103.50;6093917;19;20014;-73
2023/08/22 03:07:28;;;;;;;6.97;3.45;;;;;;;16.44;100.00;102108.00;6089915;19;20023;-72
2023/08/22 03:09:35;;;;;;;9.32;3.83;;;;;;;16.40;100.00;102108.22;6088336;19;20010;-73
2023/08/22 03:11:40;;;;;;;7.10;3.55;;;;;;;16.37;100.00;102103.06;6082656;19;20008;-73
2023/08/22 03:13:46;;;;;;;11.32;4.38;;;;;;;16.33;100.00;102097.03;6080470;19;20078;-73
2023/08/22 03:15:51;;;;;;;6.90;3.25;;;;;;;16.33;100.00;102102.34;6101504;19;20017;-72
2023/08/22 03:17:56;;;;;;;6.80;3.45;;;;;;;16.28;100.00;102104.31;6085693;19;20006;-73
2023/08/22 03:20:05;;;;;;;7.35;3.50;;;;;;;16.28;100.00;102100.81;6093121;19;20020;-73
2023/08/22 03:22:10;;;;;;;8.85;3.50;;;;;;;16.28;100.00;102100.81;6084830;19;21533;-72
2023/08/22 03:24:15;;;;;;;7.18;3.40;;;;;;;16.29;100.00;102111.34;6092889;19;20034;-72
2023/08/22 03:26:18;;;;;;;8.40;3.92;;;;;;;16.32;100.00;102097.09;6092745;19;20018;-72
2023/08/22 03:28:23;;;;;;;7.28;3.55;;;;;;;16.26;100.00;102095.56;6100045;19;20521;-73
2023/08/22 03:30:28;;;;;;;7.53;3.42;;;;;;;16.24;100.00;102097.41;6095966;19;20550;-71
2023/08/22 03:32:33;;;;;;;6.95;3.45;;;;;;;16.26;100.00;102100.88;6093356;19;20681;-72
2023/08/22 03:34:39;;;;;;;8.10;3.47;;;;;;;16.26;100.00;102094.72;6069057;19;20039;-71
2023/08/22 03:36:44;;;;;;;9.38;4.25;;;;;;;16.24;100.00;102094.78;6091519;19;22687;-71
2023/08/22 03:38:51;;;;;;;6.88;3.20;;;;;;;16.25;100.00;102085.91;6075972;19;20007;-72
2023/08/22 03:40:59;;;;;;;8.15;3.20;;;;;;;16.20;100.00;102088.75;6096606;19;20013;-73
2023/08/22 03:43:04;;;;;;;7.50;3.90;;;;;;;16.20;100.00;102075.50;6094101;19;20007;-71
2023/08/22 03:45:10;;;;;;;8.30;3.88;;;;;;;16.22;100.00;102081.59;6082896;19;20010;-72
2023/08/22 03:47:16;;;;;;;6.25;3.65;;;;;;;16.21;100.00;102076.34;6091474;19;20006;-71
2023/08/22 03:49:31;;;;;;;8.85;4.10;;;;;;;16.22;100.00;102076.28;6079508;19;20434;-72
2023/08/22 03:51:37;;;;;;;7.90;3.88;;;;;;;16.20;100.00;102071.97;6082810;19;20006;-71
2023/08/22 03:53:45;;;;;;;9.05;3.65;;;;;;;16.17;100.00;102067.69;6086913;19;20010;-71
2023/08/22 03:55:50;;;;;;;9.13;4.28;;;;;;;16.14;100.00;102073.13;6083628;19;20788;-72
2023/08/22 03:57:55;;;;;;;9.55;3.83;;;;;;;16.13;100.00;102068.72;6095923;19;20595;-72
2023/08/22 04:00:03;;;;;;;10.02;3.95;;;;;;;16.10;100.00;102076.81;6063066;19;20283;-73
2023/08/22 04:02:08;;;;;;;8.65;3.53;;;;;;;16.12;100.00;102063.50;6085489;19;20649;-73
2023/08/22 04:04:14;;;;;;;8.27;3.53;;;;;;;16.14;100.00;102070.47;6084795;19;20511;-71
2023/08/22 04:06:19;;;;;;;8.98;4.10;;;;;;;16.15;100.00;102069.53;6081984;19;20030;-71
2023/08/22 04:08:25;;;;;;;9.50;4.40;;;;;;;16.10;100.00;102058.25;6083392;19;20032;-71
2023/08/22 04:10:35;;;;;;;7.65;3.22;;;;;;;16.12;100.00;102067.00;6077024;19;20015;-71
2023/08/22 04:12:40;;;;;;;7.28;3.47;;;;;;;16.09;100.00;102066.28;6090656;19;20507;-71
2023/08/22 04:14:46;;;;;;;9.73;4.47;;;;;;;16.06;100.00;102061.09;6069847;19;20042;-72
2023/08/22 04:16:51;;;;;;;9.18;4.13;;;;;;;16.07;100.00;102065.50;6083995;19;20062;-72
2023/08/22 04:18:58;;;;;;;8.43;4.30;;;;;;;16.06;100.00;102074.38;6090205;19;20353;-71
2023/08/22 04:21:04;;;;;;;11.18;3.95;;;;;;;16.01;100.00;102078.09;6094080;19;20007;-73
2023/08/22 04:23:13;;;;;;;9.02;3.67;;;;;;;16.02;100.00;102086.91;6085278;19;20051;-71
2023/08/22 04:25:18;;;;;;;6.82;4.03;;;;;;;15.98;100.00;102091.50;6094087;19;20042;-71
2023/08/22 04:27:31;;;;;;;8.07;4.15;;;;;;;15.96;100.00;102084.53;6085984;19;20478;-73
2023/08/22 04:29:37;;;;;;;9.40;3.80;;;;;;;15.93;100.00;102082.88;6091480;19;20640;-71
2023/08/22 04:31:42;;;;;;;8.70;4.07;;;;;;;15.90;100.00;102092.72;6083511;19;20808;-72
2023/08/22 04:33:47;;;;;;;6.38;3.22;;;;;;;15.88;100.00;102091.94;6096504;19;20003;-72
2023/08/22 04:35:53;;;;;;;9.35;3.50;;;;;;;15.90;100.00;102090.06;6088508;19;20026;-71
2023/08/22 04:37:59;;;;;;;7.03;3.47;;;;;;;15.84;100.00;102077.94;6080659;19;20011;-70
2023/08/22 04:40:05;;;;;;;10.68;4.85;;;;;;;15.80;100.00;102090.47;6095888;19;20536;-70
2023/08/22 04:42:10;;;;;;;10.75;3.97;;;;;;;15.78;100.00;102083.53;6090242;19;20027;-71
2023/08/22 04:44:18;;;;;;;10.70;4.25;;;;;;;15.78;100.00;102084.38;6083800;19;20493;-71
2023/08/22 04:46:23;;;;;;;13.20;4.72;;;;;;;15.76;100.00;102082.72;6067643;19;20014;-72
2023/08/22 04:48:30;;;;;;;7.47;3.60;;;;;;;15.73;100.00;102083.72;6095436;19;20006;-72
2023/08/22 04:50:35;;;;;;;7.82;3.08;;;;;;;15.75;100.00;102079.22;6084585;19;20357;-71
2023/08/22 04:52:40;;;;;;;5.93;2.90;;;;;;;15.71;100.00;102080.25;6087512;19;20410;-72
2023/08/22 04:54:45;;;;;;;10.27;4.00;;;;;;;15.74;100.00;102069.53;6082904;19;20007;-72
2023/08/22 04:56:50;;;;;;;9.48;3.75;;;;;;;15.73;100.00;102070.47;6087934;19;20036;-72
2023/08/22 04:58:55;;;;;;;9.20;3.42;;;;;;;15.71;100.00;102064.34;6079746;19;20138;-72
2023/08/22 05:01:03;;;;;;;8.73;4.03;;;;;;;15.70;100.00;102070.59;6079072;19;20011;-71
2023/08/22 05:03:08;;;;;;;8.10;3.83;;;;;;;15.72;100.00;102066.09;6082269;19;20014;-73
2023/08/22 05:05:11;;;;;;;8.30;3.83;;;;;;;15.72;100.00;102060.78;6092128;19;20010;-72
2023/08/22 05:07:16;;;;;;;8.60;4.07;;;;;;;15.73;100.00;102065.16;6072964;19;20006;-72
2023/08/22 05:09:21;;;;;;;9.13;4.43;;;;;;;15.74;100.00;102072.16;6065632;19;20120;-72
2023/08/22 05:11:28;;;;;;;8.55;3.63;;;;;;;15.79;100.00;102069.34;6073874;19;20431;-72
2023/08/22 05:13:35;;;;;;;8.70;3.95;;;;;;;15.83;100.00;102067.44;6091163;19;20536;-74
2023/08/22 05:15:40;;;;;;;9.02;3.88;;;;;;;15.90;100.00;102061.78;6083196;19;20070;-74
2023/08/22 05:17:48;;;;;;;10.32;3.72;;;;;;;15.98;100.00;102061.44;6079241;19;20017;-73
2023/08/22 05:19:53;;;;;;;7.97;4.00;;;;;;;16.07;100.00;102058.41;6091475;19;20084;-72
2023/08/22 05:21:58;;;;;;;9.02;3.78;;;;;;;16.17;100.00;102062.38;6085052;19;20006;-71
2023/08/22 05:24:03;;;;;;;9.05;4.40;;;;;;;16.30;100.00;102069.75;6089462;19;20014;-70
2023/08/22 05:26:08;;;;;;;11.88;5.15;;;;;;;16.43;100.00;102081.56;6095936;19;20078;-71
2023/08/22 05:28:14;;;;;;;14.02;5.13;;;;;;;16.54;100.00;102081.94;6067703;19;20011;-71
2023/08/22 05:30:19;;;;;;;12.55;5.20;;;;;;;16.65;100.00;102087.59;6067596;19;20930;-71
2023/08/22 05:32:26;;;;;;;10.23;5.10;;;;;;;16.74;100.00;102086.31;6084077;19;20066;-73
2023/08/22 05:34:35;;;;;;;11.40;4.82;;;;;;;16.87;100.00;102084.84;6081218;19;20013;-71
2023/08/22 05:36:40;;;;;;;14.70;5.30;;;;;;;17.08;100.00;102088.25;6089089;19;20517;-71
2023/08/22 05:38:45;;;;;;;12.98;5.45;;;;;;;17.15;100.00;102088.00;6078431;19;20573;-71
2023/08/22 05:40:50;;;;;;;10.30;4.75;;;;;;;17.15;100.00;102086.19;6094983;19;20031;-70
2023/08/22 05:42:55;;;;;;;12.63;4.70;;;;;;;17.20;100.00;102089.47;6066397;19;21255;-71
2023/08/22 05:45:00;;;;;;;10.13;4.53;;;;;;;17.27;100.00;102093.56;6090699;19;20016;-70
2023/08/22 05:47:06;;;;;;;11.50;4.95;;;;;;;17.32;100.00;102098.63;6096189;19;20077;-71
2023/08/22 05:49:11;;;;;;;11.57;5.13;;;;;;;17.36;100.00;102089.59;6072265;19;20016;-71
2023/08/22 05:51:19;;;;;;;8.65;4.38;;;;;;;17.43;100.00;102090.13;6074322;19;20062;-71
2023/08/22 05:53:22;;;;;;;9.65;5.15;;;;;;;17.59;99.91;102084.91;6089987;19;20009;-72
2023/08/22 05:55:29;;;;;;;10.00;4.93;;;;;;;17.88;98.91;102089.69;6087301;19;20002;-70
2023/08/22 05:57:38;;;;;;;10.50;5.22;;;;;;;18.27;97.93;102091.16;6089564;19;20373;-72
2023/08/22 05:59:44;;;;;;;11.75;5.05;;;;;;;18.68;95.13;102092.56;6082175;19;20002;-73
2023/08/22 06:01:49;;;;;;;12.82;5.32;;;;;;;19.06;93.29;102103.78;6087093;19;20006;-72
2023/08/22 06:03:55;;;;;;;12.50;5.45;;;;;;;19.48;92.92;102099.59;6088861;19;20286;-72
2023/08/22 06:06:00;;;;;;;11.57;5.53;;;;;;;19.70;90.91;102102.78;6091250;19;20035;-72
2023/08/22 06:08:08;;;;;;;10.98;5.38;;;;;;;20.04;89.29;102092.78;6087625;19;20006;-73
2023/08/22 06:10:13;;;;;;;13.00;5.57;;;;;;;19.69;89.08;102100.19;6082660;19;20483;-74
2023/08/22 06:12:19;;;;;;;11.32;5.32;;;;;;;19.74;89.57;102100.78;6090287;19;20010;-75
2023/08/22 06:14:25;;;;;;;9.25;5.03;;;;;;;19.86;89.65;102099.22;6079493;19;20010;-74
2023/08/22 06:16:30;;;;;;;13.52;5.65;;;;;;;19.78;90.13;102096.16;6084127;19;20149;-73
2023/08/22 06:18:35;;;;;;;12.23;5.88;;;;;;;19.57;90.85;102099.09;6087503;19;20011;-72
2023/08/22 06:20:38;;;;;;;15.60;6.35;;;;;;;19.72;91.20;102097.34;6082925;19;20126;-73
2023/08/22 06:22:43;;;;;;;15.52;6.35;;;;;;;19.81;91.13;102096.81;6090548;19;20022;-73
2023/08/22 06:24:51;;;;;;;16.67;6.47;;;;;;;19.88;90.39;102097.28;6066715;19;20340;-73
2023/08/22 06:26:59;;;;;;;13.23;6.55;;;;;;;20.09;89.92;102096.03;6083881;19;20094;-74
2023/08/22 06:29:06;;;;;;;15.65;6.40;;;;;;;20.20;89.44;102091.84;6083428;19;20014;-73
2023/08/22 06:31:12;;;;;;;16.77;6.72;;;;;;;20.70;88.33;102085.19;6088591;19;20492;-74
2023/08/22 06:33:17;;;;;;;14.00;6.22;;;;;;;20.87;86.20;102092.97;6064464;19;20025;-74
2023/08/22 06:35:24;;;;;;;14.25;6.80;;;;;;;20.90;85.98;102100.78;6082369;19;20602;-73
2023/08/22 06:37:32;;;;;;;12.10;6.32;;;;;;;20.94;85.54;102093.44;6089185;19;20010;-73
2023/08/22 06:39:39;;;;;;;15.73;6.43;;;;;;;20.87;85.15;102086.78;6083875;19;20002;-73
2023/08/22 06:41:46;;;;;;;14.48;6.75;;;;;;;21.16;84.61;102088.41;6066717;19;20002;-72
2023/08/22 06:43:52;;;;;;;16.83;6.53;;;;;;;21.18;84.49;102096.34;6088153;19;20039;-74
2023/08/22 06:46:00;;;;;;;15.85;6.78;;;;;;;21.41;84.02;102089.53;6089408;19;20492;-70
2023/08/22 06:48:06;;;;;;;15.25;6.35;;;;;;;20.95;84.03;102085.31;6089944;19;20017;-70
2023/08/22 06:50:12;;;;;;;15.93;6.50;;;;;;;21.02;84.10;102086.66;6084248;19;20526;-71
2023/08/22 06:52:18;;;;;;;15.52;7.20;;;;;;;21.34;82.97;102094.38;6075691;19;20032;-70
2023/08/22 06:54:23;;;;;;;19.13;7.28;;;;;;;21.15;83.05;102102.75;6074136;19;20003;-71
2023/08/22 06:56:30;;;;;;;14.23;6.72;;;;;;;21.41;82.56;102092.19;6068521;19;20508;-71
2023/08/22 06:58:39;;;;;;;15.63;7.43;;;;;;;21.29;81.46;102103.66;6064761;19;20010;-70
2023/08/22 07:00:41;;;;;;;13.70;5.80;;;;;;;21.47;81.12;102102.47;6054742;19;20007;-71
2023/08/22 07:02:49;;;;;;;14.95;6.22;;;;;;;21.48;80.76;102115.75;6056805;19;20035;-71
2023/08/22 07:04:52;;;;;;;16.13;7.60;;;;;;;21.57;81.56;102116.09;6083177;19;20743;-71
2023/08/22 07:07:00;;;;;;;14.75;5.93;;;;;;;21.43;81.96;102115.22;6086877;19;20014;-71
2023/08/22 07:09:06;;;;;;;18.67;7.05;;;;;;;21.20;82.51;102115.81;6071927;19;20010;-72
2023/08/22 07:11:11;;;;;;;16.50;7.38;;;;;;;21.29;82.76;102115.22;6070653;19;20023;-74
2023/08/22 07:13:15;;;;;;;13.52;7.00;;;;;;;21.12;83.51;102126.16;6082327;19;20467;-73
2023/08/22 07:15:25;;;;;;;14.32;6.72;;;;;;;20.99;83.56;102131.44;6079544;19;20048;-74
2023/08/22 07:17:30;;;;;;;15.98;7.47;;;;;;;20.90;84.25;102135.53;6094854;19;20015;-70
2023/08/22 07:19:35;;;;;;;15.85;7.43;;;;;;;20.68;85.21;102141.38;6092500;19;20013;-71
2023/08/22 07:21:43;;;;;;;15.23;6.57;;;;;;;20.62;85.90;102141.78;6075060;19;20028;-70
2023/08/22 07:23:48;;;;;;;;;;;;;;;20.31;87.58;102140.94;6078028;19;20007;-70
2023/08/22 07:25:56;;;;;;;12.65;5.57;;;;;;;20.40;87.06;102136.84;6091413;19;19911;-69
2023/08/22 07:28:03;;;;;;;11.30;5.28;;;;;;;20.52;86.61;102136.09;6083472;19;20533;-70
2023/08/22 07:30:09;;;;;;;16.77;5.70;;;;;;;20.39;87.28;102145.81;6095503;19;20039;-70
2023/08/22 07:32:18;;;;;;;14.60;6.18;;;;;;;20.37;87.92;102147.72;6098491;19;20106;-72
2023/08/22 07:34:24;;;;;;;11.50;5.50;;;;;;;20.39;87.75;102151.16;6095049;19;20350;-73
2023/08/22 07:36:32;;;;;;;12.30;5.43;;;;;;;20.33;87.83;102160.41;6099517;19;20007;-73
2023/08/22 07:38:37;;;;;;;12.10;5.05;;;;;;;20.35;88.35;102165.63;6086620;19;20491;-73
2023/08/22 07:40:43;;;;;;;15.10;6.45;;;;;;;20.41;88.73;102157.28;6089257;19;20002;-71
2023/08/22 07:42:48;;;;;;;15.35;6.63;;;;;;;20.50;88.21;102158.50;6098036;19;20026;-72
2023/08/22 07:44:53;;;;;;;16.20;7.07;;;;;;;20.53;88.34;102164.50;6093493;19;20010;-70
2023/08/22 07:46:59;;;;;;;13.85;6.00;;;;;;;20.61;87.57;102166.75;6096249;19;20010;-71
2023/08/22 07:49:07;;;;;;;13.27;6.38;;;;;;;20.74;87.52;102172.19;6089018;19;20010;-71
2023/08/22 07:51:12;;;;;;;14.07;6.97;;;;;;;20.71;87.49;102167.03;6081855;19;20019;-71
2023/08/22 07:53:17;;;;;;;12.05;6.38;;;;;;;20.96;86.47;102159.22;6089496;19;20012;-71
2023/08/22 07:55:23;;;;;;;13.95;6.55;;;;;;;21.00;86.15;102160.72;6092651;19;20035;-70
2023/08/22 07:57:31;;;;;;;13.77;6.55;;;;;;;21.08;86.46;102159.38;6090937;19;20078;-71
2023/08/22 07:59:37;;;;;;;13.82;6.53;;;;;;;20.98;85.79;102164.44;6091935;19;20030;-73
2023/08/22 08:01:43;;;;;;;17.40;6.88;;;;;;;20.95;86.26;102153.94;6089749;19;20043;-73
2023/08/22 08:03:48;;;;;;;16.10;6.97;;;;;;;20.94;86.23;102147.75;6092682;19;20006;-72
2023/08/22 08:05:56;;;;;;;17.83;6.90;;;;;;;21.04;86.18;102153.38;6096115;19;20015;-72
2023/08/22 08:08:01;;;;;;;13.57;6.93;;;;;;;21.27;85.19;102149.19;6083856;19;20010;-71
2023/08/22 08:10:04;;;;;;;17.55;7.40;;;;;;;21.24;85.16;102152.06;6101784;19;20007;-73
2023/08/22 08:12:10;;;;;;;15.10;6.93;;;;;;;21.58;84.22;102153.44;6088666;19;20036;-73
2023/08/22 08:14:15;;;;;;;13.18;6.85;;;;;;;21.42;84.73;102152.72;6089574;19;20067;-72
2023/08/22 08:16:20;;;;;;;12.68;6.20;;;;;;;21.63;84.16;102150.47;6088464;19;20052;-72
2023/08/22 08:18:43;;;;;;;13.68;6.28;;;;;;;21.32;84.55;102143.56;6090360;19;20026;-72
2023/08/22 08:20:49;;;;;;;13.73;6.60;;;;;;;21.40;84.89;102147.47;6087210;19;20737;-72
2023/08/22 08:22:58;;;;;;;14.00;6.32;;;;;;;21.33;83.99;102159.53;6080738;19;20526;-72
2023/08/22 08:25:04;;;;;;;16.35;6.57;;;;;;;21.35;84.84;102160.25;6098631;19;20418;-73
2023/08/22 08:27:09;;;;;;;12.20;5.20;;;;;;;21.43;83.69;102149.97;6083988;19;20003;-72
2023/08/22 08:29:16;;;;;;;11.82;5.78;;;;;;;21.52;83.18;102147.66;6082216;19;20011;-72
2023/08/22 08:31:21;;;;;;;12.50;5.20;;;;;;;21.65;82.58;102146.72;6079886;19;20760;-73
2023/08/22 08:33:26;;;;;;;12.43;5.18;;;;;;;21.81;81.06;102138.53;6089449;19;20536;-73
2023/08/22 08:35:31;;;;;;;7.75;4.00;;;;;;;22.11;80.65;102140.91;6087137;19;20018;-72
2023/08/22 08:37:36;;;;;;;10.35;4.20;;;;;;;22.18;79.60;102136.00;6088950;19;20407;-73
2023/08/22 08:39:44;;;;;;;10.50;5.18;;;;;;;22.06;80.28;102148.41;6087332;19;20105;-72
2023/08/22 08:42:10;;;;;;;12.88;5.05;;;;;;;22.04;80.10;102134.28;6094281;19;20291;-72
2023/08/22 08:44:17;;;;;;;11.80;4.35;;;;;;;21.92;80.20;102146.69;6089784;19;21490;-72
2023/08/22 08:46:25;;;;;;;9.88;4.57;;;;;;;22.12;79.53;102144.47;6095408;19;20035;-74
2023/08/22 08:48:33;;;;;;;9.73;3.10;;;;;;;22.27;79.20;102151.47;6075123;19;20024;-74
2023/08/22 08:50:39;;;;;;;10.23;3.58;;;;;;;22.27;78.22;102148.78;6090056;19;20368;-73
2023/08/22 08:52:47;;;;;;;9.52;3.30;;;;;;;22.37;76.46;102156.19;6079746;19;20634;-73
2023/08/22 08:54:56;;;;;;;6.72;3.30;;;;;;;22.38;76.34;102149.88;6089728;19;20042;-74
2023/08/22 08:57:02;;;;;;;9.93;3.95;;;;;;;22.60;76.96;102151.91;6088032;19;20378;-75
2023/08/22 08:59:07;;;;;;;7.53;2.95;;;;;;;22.75;75.49;102149.00;6086599;19;20958;-73
2023/08/22 09:01:14;;;;;;;8.27;3.63;;;;;;;22.72;76.38;102161.75;6082828;19;20019;-73
2023/08/22 09:03:20;;;;;;;8.43;3.30;;;;;;;22.83;74.87;102163.66;6089904;19;20469;-73
2023/08/22 09:05:50;;;;;;;11.18;3.17;;;;;;;22.58;74.34;102160.03;6085966;19;20003;-74
2023/08/22 09:07:55;;;;;;;8.75;3.83;;;;;;;22.72;73.87;102157.25;6096478;19;20027;-72
2023/08/22 09:10:04;;;;;;;9.35;3.67;;;;;;;22.78;74.23;102156.81;6070144;19;20437;-72
2023/08/22 09:12:13;;;;;;;7.25;3.20;;;;;;;22.51;74.27;102153.41;6097910;19;20011;-73
2023/08/22 09:14:22;;;;;;;7.72;3.30;;;;;;;22.75;74.37;102156.19;6090956;19;20504;-74
2023/08/22 09:16:28;;;;;;;7.75;3.10;;;;;;;22.77;74.28;102157.75;6082610;19;20863;-74
2023/08/22 09:18:34;;;;;;;7.68;3.92;;;;;;;23.05;74.34;102146.94;6087939;19;20011;-72
2023/08/22 09:20:45;;;;;;;6.82;3.25;;;;;;;22.85;73.55;102153.69;6085272;19;20090;-72
2023/08/22 09:22:50;;;;;;;9.82;3.35;;;;;;;23.15;73.93;102147.97;6081980;19;20024;-74
2023/08/22 09:24:56;;;;;;;6.03;2.92;;;;;;;23.04;73.46;102148.75;6099371;19;20013;-72
2023/08/22 09:27:05;;;;;;;6.55;2.85;;;;;;;22.66;73.73;102155.00;6074279;19;20532;-73
2023/08/22 09:29:11;;;;;;;9.00;2.92;;;;;;;22.78;73.53;102161.31;6079255;19;20090;-76
2023/08/22 09:31:26;;;;;;;6.55;2.58;;;;;;;22.94;73.75;102161.94;6094744;19;20066;-73
2023/08/22 09:33:31;;;;;;;8.88;2.85;;;;;;;22.62;72.76;102169.59;6085292;19;20018;-73
2023/08/22 09:35:36;;;;;;;5.82;2.55;;;;;;;22.63;72.93;102173.97;6095324;19;20006;-74
2023/08/22 09:37:41;;;;;;;11.63;3.22;;;;;;;22.89;73.46;102173.97;6082813;19;20047;-73
2023/08/22 09:39:56;;;;;;;5.68;2.47;;;;;;;22.92;71.50;102171.91;6088644;19;20335;-73
2023/08/22 09:42:08;;;;;;;4.03;1.92;;;;;;;23.21;70.67;102169.81;6093681;19;20014;-74
2023/08/22 09:44:14;;;;;;;9.70;2.25;;;;;;;23.55;68.70;102175.41;6081638;19;20039;-73